sensor_id;sensor_type;location;lat;lon;timestamp;temperature;humidity
29731;DHT22;16639;51.488;0.152;2023-02-17T00:03:43;11.20;99.90
29731;DHT22;16639;51.488;0.152;2023-02-17T00:06:15;10.80;99.90
29731;DHT22;16639;51.488;0.152;2023-02-17T00:08:43;11.20;99.90
29731;DHT22;16639;51.488;0.152;2023-02-17T00:11:11;11.20;99.90
29731;DHT22;16639;51.488;0.152;2023-02-17T00:13:40;11.20;99.90
29731;DHT22;16639;51.488;0.152;2023-02-17T00:16:19;11.30;99.90
29731;DHT22;16639;51.488;0.152;2023-02-17T00:18:55;11.20;99.90
29731;DHT22;16639;51.488;0.152;2023-02-17T00:21:30;11.30;99.90
29731;DHT22;16639;51.488;0.152;2023-02-17T00:23:58;11.40;99.90
29731;DHT22;16639;51.488;0.152;2023-02-17T00:26:26;11.30;99.90
29731;DHT22;16639;51.488;0.152;2023-02-17T00:28:53;11.30;99.90
29731;DHT22;16639;51.488;0.152;2023-02-17T00:31:22;11.30;99.90
29731;DHT22;16639;51.488;0.152;2023-02-17T00:33:53;11.30;99.90
29731;DHT22;16639;51.488;0.152;2023-02-17T00:36:22;11.30;99.90
29731;DHT22;16639;51.488;0.152;2023-02-17T00:38:49;11.30;99.90
29731;DHT22;16639;51.488;0.152;2023-02-17T00:41:17;11.40;99.90
29731;DHT22;16639;51.488;0.152;2023-02-17T00:43:46;11.40;99.90
29731;DHT22;16639;51.488;0.152;2023-02-17T00:46:14;11.30;99.90
29731;DHT22;16639;51.488;0.152;2023-02-17T00:48:42;11.40;99.90
29731;DHT22;16639;51.488;0.152;2023-02-17T00:51:10;11.40;99.90
29731;DHT22;16639;51.488;0.152;2023-02-17T00:53:38;11.40;99.90
29731;DHT22;16639;51.488;0.152;2023-02-17T00:56:17;11.50;99.90
29731;DHT22;16639;51.488;0.152;2023-02-17T00:59:01;11.40;99.90
29731;DHT22;16639;51.488;0.152;2023-02-17T01:01:30;11.50;99.90
29731;DHT22;16639;51.488;0.152;2023-02-17T01:04:09;11.50;99.90
29731;DHT22;16639;51.488;0.152;2023-02-17T01:06:54;11.50;99.90
29731;DHT22;16639;51.488;0.152;2023-02-17T01:09:39;11.50;99.90
29731;DHT22;16639;51.488;0.152;2023-02-17T01:12:34;11.50;99.90
29731;DHT22;16639;51.488;0.152;2023-02-17T01:15:30;11.50;99.90
29731;DHT22;16639;51.488;0.152;2023-02-17T01:18:17;11.60;99.90
29731;DHT22;16639;51.488;0.152;2023-02-17T01:21:05;11.60;99.90
29731;DHT22;16639;51.488;0.152;2023-02-17T01:23:54;11.60;99.90
29731;DHT22;16639;51.488;0.152;2023-02-17T01:26:53;11.60;99.90
29731;DHT22;16639;51.488;0.152;2023-02-17T01:29:47;11.60;99.90
29731;DHT22;16639;51.488;0.152;2023-02-17T01:32:38;11.60;99.90
29731;DHT22;16639;51.488;0.152;2023-02-17T01:36:04;11.60;99.90
29731;DHT22;16639;51.488;0.152;2023-02-17T01:38:40;11.70;99.90
29731;DHT22;16639;51.488;0.152;2023-02-17T01:41:21;11.70;99.90
29731;DHT22;16639;51.488;0.152;2023-02-17T01:46:41;11.70;99.90
29731;DHT22;16639;51.488;0.152;2023-02-17T01:51:41;11.70;99.90
29731;DHT22;16639;51.488;0.152;2023-02-17T01:54:21;11.70;99.90
29731;DHT22;16639;51.488;0.152;2023-02-17T01:56:50;11.70;99.90
29731;DHT22;16639;51.488;0.152;2023-02-17T01:59:20;11.70;99.90
29731;DHT22;16639;51.488;0.152;2023-02-17T02:04:53;11.70;99.90
29731;DHT22;16639;51.488;0.152;2023-02-17T02:07:42;12.50;99.90
29731;DHT22;16639;51.488;0.152;2023-02-17T02:13:51;11.70;99.90
29731;DHT22;16639;51.488;0.152;2023-02-17T02:16:49;11.70;99.90
29731;DHT22;16639;51.488;0.152;2023-02-17T02:29:24;11.70;99.90
29731;DHT22;16639;51.488;0.152;2023-02-17T02:35:29;11.70;99.90
29731;DHT22;16639;51.488;0.152;2023-02-17T02:38:35;11.70;99.90
29731;DHT22;16639;51.488;0.152;2023-02-17T02:41:10;11.70;99.90
29731;DHT22;16639;51.488;0.152;2023-02-17T02:43:39;11.70;99.90
29731;DHT22;16639;51.488;0.152;2023-02-17T02:46:07;11.70;99.90
29731;DHT22;16639;51.488;0.152;2023-02-17T02:48:36;11.70;99.90
29731;DHT22;16639;51.488;0.152;2023-02-17T02:54:14;11.70;99.90
29731;DHT22;16639;51.488;0.152;2023-02-17T03:02:58;11.70;99.90
29731;DHT22;16639;51.488;0.152;2023-02-17T03:08:32;11.80;99.90
29731;DHT22;16639;51.488;0.152;2023-02-17T03:11:02;11.80;99.90
29731;DHT22;16639;51.488;0.152;2023-02-17T03:13:32;11.80;99.90
29731;DHT22;16639;51.488;0.152;2023-02-17T03:16:00;11.80;99.90
29731;DHT22;16639;51.488;0.152;2023-02-17T03:18:31;11.90;99.90
29731;DHT22;16639;51.488;0.152;2023-02-17T03:21:09;11.80;99.90
29731;DHT22;16639;51.488;0.152;2023-02-17T03:23:39;11.80;99.90
29731;DHT22;16639;51.488;0.152;2023-02-17T03:26:06;11.80;99.90
29731;DHT22;16639;51.488;0.152;2023-02-17T03:28:34;11.80;99.90
29731;DHT22;16639;51.488;0.152;2023-02-17T03:31:01;11.80;99.90
29731;DHT22;16639;51.488;0.152;2023-02-17T03:33:29;11.80;99.90
29731;DHT22;16639;51.488;0.152;2023-02-17T03:35:56;11.90;99.90
29731;DHT22;16639;51.488;0.152;2023-02-17T03:38:23;11.80;99.90
29731;DHT22;16639;51.488;0.152;2023-02-17T03:40:51;12.30;99.90
29731;DHT22;16639;51.488;0.152;2023-02-17T03:43:20;11.80;99.90
29731;DHT22;16639;51.488;0.152;2023-02-17T03:45:48;11.80;99.90
29731;DHT22;16639;51.488;0.152;2023-02-17T03:48:15;11.80;99.90
29731;DHT22;16639;51.488;0.152;2023-02-17T03:50:42;11.30;99.90
29731;DHT22;16639;51.488;0.152;2023-02-17T03:53:10;11.80;99.90
29731;DHT22;16639;51.488;0.152;2023-02-17T03:55:37;11.80;99.90
29731;DHT22;16639;51.488;0.152;2023-02-17T03:58:05;11.80;99.90
29731;DHT22;16639;51.488;0.152;2023-02-17T04:00:32;11.80;99.90
29731;DHT22;16639;51.488;0.152;2023-02-17T04:03:00;11.80;99.90
29731;DHT22;16639;51.488;0.152;2023-02-17T04:05:27;11.80;99.90
29731;DHT22;16639;51.488;0.152;2023-02-17T04:07:54;11.80;99.90
29731;DHT22;16639;51.488;0.152;2023-02-17T04:10:22;11.80;99.90
29731;DHT22;16639;51.488;0.152;2023-02-17T04:12:49;11.80;99.90
29731;DHT22;16639;51.488;0.152;2023-02-17T04:15:16;12.30;99.90
29731;DHT22;16639;51.488;0.152;2023-02-17T04:17:44;11.80;99.90
29731;DHT22;16639;51.488;0.152;2023-02-17T04:20:11;11.70;99.90
29731;DHT22;16639;51.488;0.152;2023-02-17T04:22:38;12.30;99.90
29731;DHT22;16639;51.488;0.152;2023-02-17T04:25:06;11.80;99.90
29731;DHT22;16639;51.488;0.152;2023-02-17T04:27:33;11.80;99.90
29731;DHT22;16639;51.488;0.152;2023-02-17T04:30:00;11.10;99.90
29731;DHT22;16639;51.488;0.152;2023-02-17T04:32:28;11.70;99.90
29731;DHT22;16639;51.488;0.152;2023-02-17T04:34:55;11.70;99.90
29731;DHT22;16639;51.488;0.152;2023-02-17T04:37:23;11.80;99.90
29731;DHT22;16639;51.488;0.152;2023-02-17T04:39:50;11.80;99.90
29731;DHT22;16639;51.488;0.152;2023-02-17T04:42:17;11.40;99.90
29731;DHT22;16639;51.488;0.152;2023-02-17T04:44:45;11.80;99.90
29731;DHT22;16639;51.488;0.152;2023-02-17T04:47:12;11.80;99.90
29731;DHT22;16639;51.488;0.152;2023-02-17T04:49:39;11.80;99.90
29731;DHT22;16639;51.488;0.152;2023-02-17T04:52:09;11.80;99.90
29731;DHT22;16639;51.488;0.152;2023-02-17T04:54:36;11.80;99.90
29731;DHT22;16639;51.488;0.152;2023-02-17T04:57:03;11.80;99.90
29731;DHT22;16639;51.488;0.152;2023-02-17T04:59:30;11.90;99.90
29731;DHT22;16639;51.488;0.152;2023-02-17T05:01:58;11.90;99.90
29731;DHT22;16639;51.488;0.152;2023-02-17T05:04:25;11.90;99.90
29731;DHT22;16639;51.488;0.152;2023-02-17T05:06:52;11.90;99.90
29731;DHT22;16639;51.488;0.152;2023-02-17T05:09:20;11.80;99.90
29731;DHT22;16639;51.488;0.152;2023-02-17T05:11:47;11.90;99.90
29731;DHT22;16639;51.488;0.152;2023-02-17T05:14:15;11.90;99.90
29731;DHT22;16639;51.488;0.152;2023-02-17T05:16:42;11.90;99.90
29731;DHT22;16639;51.488;0.152;2023-02-17T05:19:09;11.90;99.90
29731;DHT22;16639;51.488;0.152;2023-02-17T05:21:37;11.90;99.90
29731;DHT22;16639;51.488;0.152;2023-02-17T05:24:04;11.90;99.90
29731;DHT22;16639;51.488;0.152;2023-02-17T05:26:32;11.90;99.90
29731;DHT22;16639;51.488;0.152;2023-02-17T05:28:59;11.90;99.90
29731;DHT22;16639;51.488;0.152;2023-02-17T05:31:26;11.80;99.90
29731;DHT22;16639;51.488;0.152;2023-02-17T05:33:54;11.80;99.90
29731;DHT22;16639;51.488;0.152;2023-02-17T05:36:21;11.90;99.90
29731;DHT22;16639;51.488;0.152;2023-02-17T05:38:49;11.80;99.90
29731;DHT22;16639;51.488;0.152;2023-02-17T05:41:18;11.80;99.90
29731;DHT22;16639;51.488;0.152;2023-02-17T05:43:46;11.90;99.90
29731;DHT22;16639;51.488;0.152;2023-02-17T05:46:13;11.90;99.90
29731;DHT22;16639;51.488;0.152;2023-02-17T05:48:41;11.90;99.90
29731;DHT22;16639;51.488;0.152;2023-02-17T05:51:08;12.00;99.90
29731;DHT22;16639;51.488;0.152;2023-02-17T05:53:36;12.00;99.90
29731;DHT22;16639;51.488;0.152;2023-02-17T05:56:03;11.70;99.90
29731;DHT22;16639;51.488;0.152;2023-02-17T05:58:31;11.90;99.90
29731;DHT22;16639;51.488;0.152;2023-02-17T06:00:59;11.90;99.90
29731;DHT22;16639;51.488;0.152;2023-02-17T06:03:28;11.90;99.90
29731;DHT22;16639;51.488;0.152;2023-02-17T06:05:55;11.90;99.90
29731;DHT22;16639;51.488;0.152;2023-02-17T06:08:23;11.90;99.90
29731;DHT22;16639;51.488;0.152;2023-02-17T06:10:52;11.90;99.90
29731;DHT22;16639;51.488;0.152;2023-02-17T06:13:20;11.90;99.90
29731;DHT22;16639;51.488;0.152;2023-02-17T06:15:47;11.90;99.90
29731;DHT22;16639;51.488;0.152;2023-02-17T06:18:15;11.90;99.90
29731;DHT22;16639;51.488;0.152;2023-02-17T06:20:42;11.90;99.90
29731;DHT22;16639;51.488;0.152;2023-02-17T06:23:09;11.90;99.90
29731;DHT22;16639;51.488;0.152;2023-02-17T06:25:37;11.90;99.90
29731;DHT22;16639;51.488;0.152;2023-02-17T06:28:05;11.80;99.90
29731;DHT22;16639;51.488;0.152;2023-02-17T06:30:32;11.90;99.90
29731;DHT22;16639;51.488;0.152;2023-02-17T06:32:59;11.90;99.90
29731;DHT22;16639;51.488;0.152;2023-02-17T06:35:27;11.70;99.90
29731;DHT22;16639;51.488;0.152;2023-02-17T06:37:54;11.80;99.90
29731;DHT22;16639;51.488;0.152;2023-02-17T06:40:21;11.80;99.90
29731;DHT22;16639;51.488;0.152;2023-02-17T06:42:49;11.80;99.90
29731;DHT22;16639;51.488;0.152;2023-02-17T06:45:16;11.80;99.90
29731;DHT22;16639;51.488;0.152;2023-02-17T06:47:44;11.80;99.90
29731;DHT22;16639;51.488;0.152;2023-02-17T06:50:11;11.70;99.90
29731;DHT22;16639;51.488;0.152;2023-02-17T06:52:39;11.70;99.90
29731;DHT22;16639;51.488;0.152;2023-02-17T06:55:06;11.40;99.90
29731;DHT22;16639;51.488;0.152;2023-02-17T06:57:34;11.70;99.90
29731;DHT22;16639;51.488;0.152;2023-02-17T07:00:02;11.70;99.90
29731;DHT22;16639;51.488;0.152;2023-02-17T07:02:30;11.70;99.90
29731;DHT22;16639;51.488;0.152;2023-02-17T07:04:58;11.70;99.90
29731;DHT22;16639;51.488;0.152;2023-02-17T07:07:25;11.70;99.90
29731;DHT22;16639;51.488;0.152;2023-02-17T07:09:52;11.70;99.90
29731;DHT22;16639;51.488;0.152;2023-02-17T07:12:20;11.70;99.90
29731;DHT22;16639;51.488;0.152;2023-02-17T07:14:47;12.30;99.90
29731;DHT22;16639;51.488;0.152;2023-02-17T07:17:14;11.70;99.90
29731;DHT22;16639;51.488;0.152;2023-02-17T07:19:42;11.70;99.90
29731;DHT22;16639;51.488;0.152;2023-02-17T07:22:09;11.60;99.90
29731;DHT22;16639;51.488;0.152;2023-02-17T07:24:36;11.70;99.90
29731;DHT22;16639;51.488;0.152;2023-02-17T07:27:05;11.60;99.90
29731;DHT22;16639;51.488;0.152;2023-02-17T07:29:33;11.70;99.90
29731;DHT22;16639;51.488;0.152;2023-02-17T07:32:00;11.60;99.90
29731;DHT22;16639;51.488;0.152;2023-02-17T07:34:28;11.60;99.90
29731;DHT22;16639;51.488;0.152;2023-02-17T07:36:55;11.60;99.90
29731;DHT22;16639;51.488;0.152;2023-02-17T07:39:22;11.70;99.90
29731;DHT22;16639;51.488;0.152;2023-02-17T07:41:50;11.70;99.90
29731;DHT22;16639;51.488;0.152;2023-02-17T07:44:17;11.70;99.90
29731;DHT22;16639;51.488;0.152;2023-02-17T07:46:45;11.70;99.90
29731;DHT22;16639;51.488;0.152;2023-02-17T07:49:12;11.70;99.90
29731;DHT22;16639;51.488;0.152;2023-02-17T07:51:40;11.70;99.90
29731;DHT22;16639;51.488;0.152;2023-02-17T07:54:08;11.70;99.90
29731;DHT22;16639;51.488;0.152;2023-02-17T07:56:35;11.70;99.90
29731;DHT22;16639;51.488;0.152;2023-02-17T07:59:02;11.80;99.90
29731;DHT22;16639;51.488;0.152;2023-02-17T08:01:30;11.70;99.90
29731;DHT22;16639;51.488;0.152;2023-02-17T08:03:57;11.60;99.90
29731;DHT22;16639;51.488;0.152;2023-02-17T08:06:25;11.80;99.90
29731;DHT22;16639;51.488;0.152;2023-02-17T08:08:53;11.70;99.90
29731;DHT22;16639;51.488;0.152;2023-02-17T08:11:40;11.80;99.90
29731;DHT22;16639;51.488;0.152;2023-02-17T08:14:27;11.80;99.90
29731;DHT22;16639;51.488;0.152;2023-02-17T08:16:54;11.80;99.90
29731;DHT22;16639;51.488;0.152;2023-02-17T08:19:22;11.90;99.90
29731;DHT22;16639;51.488;0.152;2023-02-17T08:21:49;12.00;99.90
29731;DHT22;16639;51.488;0.152;2023-02-17T08:24:17;12.00;99.90
29731;DHT22;16639;51.488;0.152;2023-02-17T08:26:46;12.00;99.90
29731;DHT22;16639;51.488;0.152;2023-02-17T08:29:13;12.10;99.90
29731;DHT22;16639;51.488;0.152;2023-02-17T08:31:41;12.10;99.90
29731;DHT22;16639;51.488;0.152;2023-02-17T08:34:10;12.10;99.90
29731;DHT22;16639;51.488;0.152;2023-02-17T08:36:38;12.10;99.90
29731;DHT22;16639;51.488;0.152;2023-02-17T08:39:10;12.10;99.90
29731;DHT22;16639;51.488;0.152;2023-02-17T08:41:38;12.20;99.90
29731;DHT22;16639;51.488;0.152;2023-02-17T08:44:11;12.20;99.90
29731;DHT22;16639;51.488;0.152;2023-02-17T08:46:40;12.20;99.90
29731;DHT22;16639;51.488;0.152;2023-02-17T08:49:08;12.20;99.90
29731;DHT22;16639;51.488;0.152;2023-02-17T08:51:36;12.30;99.90
29731;DHT22;16639;51.488;0.152;2023-02-17T08:54:04;12.30;99.90
29731;DHT22;16639;51.488;0.152;2023-02-17T08:56:33;12.30;99.90
29731;DHT22;16639;51.488;0.152;2023-02-17T08:59:00;12.30;99.90
29731;DHT22;16639;51.488;0.152;2023-02-17T09:01:29;12.30;99.90
29731;DHT22;16639;51.488;0.152;2023-02-17T09:03:57;12.40;99.90
29731;DHT22;16639;51.488;0.152;2023-02-17T09:09:05;12.40;99.90
29731;DHT22;16639;51.488;0.152;2023-02-17T09:11:33;12.40;99.90
29731;DHT22;16639;51.488;0.152;2023-02-17T09:14:01;12.30;99.90
29731;DHT22;16639;51.488;0.152;2023-02-17T09:16:29;12.40;99.90
29731;DHT22;16639;51.488;0.152;2023-02-17T09:18:56;12.40;99.90
29731;DHT22;16639;51.488;0.152;2023-02-17T09:21:23;12.40;99.90
29731;DHT22;16639;51.488;0.152;2023-02-17T09:23:51;12.40;99.90
29731;DHT22;16639;51.488;0.152;2023-02-17T09:26:20;12.40;99.90
29731;DHT22;16639;51.488;0.152;2023-02-17T09:28:48;12.60;99.90
29731;DHT22;16639;51.488;0.152;2023-02-17T09:31:23;12.40;99.90
29731;DHT22;16639;51.488;0.152;2023-02-17T09:33:52;12.40;99.90
29731;DHT22;16639;51.488;0.152;2023-02-17T09:36:23;12.40;99.90
29731;DHT22;16639;51.488;0.152;2023-02-17T09:38:51;13.00;99.90
29731;DHT22;16639;51.488;0.152;2023-02-17T09:41:42;12.50;99.90
29731;DHT22;16639;51.488;0.152;2023-02-17T09:47:35;12.60;99.90
29731;DHT22;16639;51.488;0.152;2023-02-17T09:50:09;12.60;99.90
29731;DHT22;16639;51.488;0.152;2023-02-17T09:55:27;12.70;99.90
29731;DHT22;16639;51.488;0.152;2023-02-17T09:58:05;13.20;99.90
29731;DHT22;16639;51.488;0.152;2023-02-17T10:00:38;12.70;99.90
29731;DHT22;16639;51.488;0.152;2023-02-17T10:06:00;12.70;99.90
29731;DHT22;16639;51.488;0.152;2023-02-17T10:11:20;13.30;99.90
29731;DHT22;16639;51.488;0.152;2023-02-17T10:13:50;12.70;99.90
29731;DHT22;16639;51.488;0.152;2023-02-17T10:16:27;12.70;99.90
29731;DHT22;16639;51.488;0.152;2023-02-17T10:19:27;12.70;99.90
29731;DHT22;16639;51.488;0.152;2023-02-17T10:22:14;12.80;99.90
29731;DHT22;16639;51.488;0.152;2023-02-17T10:24:42;12.80;99.90
29731;DHT22;16639;51.488;0.152;2023-02-17T10:27:29;12.80;99.90
29731;DHT22;16639;51.488;0.152;2023-02-17T10:30:14;12.90;99.90
29731;DHT22;16639;51.488;0.152;2023-02-17T10:33:11;12.90;99.90
29731;DHT22;16639;51.488;0.152;2023-02-17T10:38:30;12.90;99.90
29731;DHT22;16639;51.488;0.152;2023-02-17T10:41:02;13.00;99.90
29731;DHT22;16639;51.488;0.152;2023-02-17T10:43:32;13.00;99.90
29731;DHT22;16639;51.488;0.152;2023-02-17T10:46:02;13.00;99.90
29731;DHT22;16639;51.488;0.152;2023-02-17T10:48:33;13.00;99.90
29731;DHT22;16639;51.488;0.152;2023-02-17T10:51:02;13.10;99.90
29731;DHT22;16639;51.488;0.152;2023-02-17T10:53:32;13.20;99.90
29731;DHT22;16639;51.488;0.152;2023-02-17T10:56:25;13.10;99.90
29731;DHT22;16639;51.488;0.152;2023-02-17T10:59:50;13.20;99.90
29731;DHT22;16639;51.488;0.152;2023-02-17T11:02:24;13.20;99.90
29731;DHT22;16639;51.488;0.152;2023-02-17T11:04:54;13.20;99.90
29731;DHT22;16639;51.488;0.152;2023-02-17T11:10:01;13.20;99.90
29731;DHT22;16639;51.488;0.152;2023-02-17T11:12:38;13.30;99.90
29731;DHT22;16639;51.488;0.152;2023-02-17T11:15:24;13.40;99.90
29731;DHT22;16639;51.488;0.152;2023-02-17T11:17:52;13.40;99.90
29731;DHT22;16639;51.488;0.152;2023-02-17T11:23:07;13.40;99.90
29731;DHT22;16639;51.488;0.152;2023-02-17T11:25:59;13.50;99.90
29731;DHT22;16639;51.488;0.152;2023-02-17T11:28:27;13.50;99.90
29731;DHT22;16639;51.488;0.152;2023-02-17T11:31:00;13.50;99.90
29731;DHT22;16639;51.488;0.152;2023-02-17T11:33:38;14.00;99.90
29731;DHT22;16639;51.488;0.152;2023-02-17T11:36:19;13.50;99.90
29731;DHT22;16639;51.488;0.152;2023-02-17T11:38:47;13.60;99.90
29731;DHT22;16639;51.488;0.152;2023-02-17T11:41:14;13.60;99.90
29731;DHT22;16639;51.488;0.152;2023-02-17T11:43:56;15.10;99.90
29731;DHT22;16639;51.488;0.152;2023-02-17T11:46:45;13.60;99.90
29731;DHT22;16639;51.488;0.152;2023-02-17T12:00:25;13.70;99.90
29731;DHT22;16639;51.488;0.152;2023-02-17T12:11:31;13.80;99.90
29731;DHT22;16639;51.488;0.152;2023-02-17T12:17:40;14.50;99.90
29731;DHT22;16639;51.488;0.152;2023-02-17T12:23:37;13.90;99.90
29731;DHT22;16639;51.488;0.152;2023-02-17T12:35:21;14.00;99.90
29731;DHT22;16639;51.488;0.152;2023-02-17T12:38:10;14.00;99.90
29731;DHT22;16639;51.488;0.152;2023-02-17T12:40:44;14.00;99.90
29731;DHT22;16639;51.488;0.152;2023-02-17T12:45:58;14.10;99.90
29731;DHT22;16639;51.488;0.152;2023-02-17T12:51:08;14.10;99.90
29731;DHT22;16639;51.488;0.152;2023-02-17T12:53:43;14.20;99.90
29731;DHT22;16639;51.488;0.152;2023-02-17T12:56:39;14.10;99.90
29731;DHT22;16639;51.488;0.152;2023-02-17T12:59:30;14.10;99.90
29731;DHT22;16639;51.488;0.152;2023-02-17T13:02:17;14.00;99.90
29731;DHT22;16639;51.488;0.152;2023-02-17T13:04:49;14.20;99.90
29731;DHT22;16639;51.488;0.152;2023-02-17T13:07:36;14.20;99.90
29731;DHT22;16639;51.488;0.152;2023-02-17T13:10:15;14.20;99.90
29731;DHT22;16639;51.488;0.152;2023-02-17T13:12:55;14.40;99.90
29731;DHT22;16639;51.488;0.152;2023-02-17T13:15:37;14.20;99.90
29731;DHT22;16639;51.488;0.152;2023-02-17T13:18:26;14.30;99.90
29731;DHT22;16639;51.488;0.152;2023-02-17T13:21:33;14.30;99.90
29731;DHT22;16639;51.488;0.152;2023-02-17T13:26:31;14.40;99.90
29731;DHT22;16639;51.488;0.152;2023-02-17T13:31:51;14.30;99.90
29731;DHT22;16639;51.488;0.152;2023-02-17T13:34:45;14.40;99.90
29731;DHT22;16639;51.488;0.152;2023-02-17T13:40:24;14.40;99.90
29731;DHT22;16639;51.488;0.152;2023-02-17T13:42:55;14.40;99.90
29731;DHT22;16639;51.488;0.152;2023-02-17T13:45:28;14.40;99.90
29731;DHT22;16639;51.488;0.152;2023-02-17T13:48:10;14.30;99.90
29731;DHT22;16639;51.488;0.152;2023-02-17T13:50:51;14.30;99.90
29731;DHT22;16639;51.488;0.152;2023-02-17T13:53:23;14.30;99.90
29731;DHT22;16639;51.488;0.152;2023-02-17T13:55:53;14.30;99.90
29731;DHT22;16639;51.488;0.152;2023-02-17T13:58:33;14.40;99.90
29731;DHT22;16639;51.488;0.152;2023-02-17T14:01:02;14.40;99.90
29731;DHT22;16639;51.488;0.152;2023-02-17T14:03:42;14.40;99.90
29731;DHT22;16639;51.488;0.152;2023-02-17T14:06:22;14.40;99.90
29731;DHT22;16639;51.488;0.152;2023-02-17T14:08:52;14.50;99.90
29731;DHT22;16639;51.488;0.152;2023-02-17T14:11:23;14.50;99.90
29731;DHT22;16639;51.488;0.152;2023-02-17T14:13:54;14.50;99.90
29731;DHT22;16639;51.488;0.152;2023-02-17T14:16:31;14.40;99.90
29731;DHT22;16639;51.488;0.152;2023-02-17T14:19:05;14.50;99.90
29731;DHT22;16639;51.488;0.152;2023-02-17T14:21:34;14.60;99.90
29731;DHT22;16639;51.488;0.152;2023-02-17T14:24:02;14.50;99.90
29731;DHT22;16639;51.488;0.152;2023-02-17T14:26:36;14.50;99.90
29731;DHT22;16639;51.488;0.152;2023-02-17T14:29:08;14.50;99.90
29731;DHT22;16639;51.488;0.152;2023-02-17T14:31:44;14.50;99.90
29731;DHT22;16639;51.488;0.152;2023-02-17T14:34:33;14.50;99.90
29731;DHT22;16639;51.488;0.152;2023-02-17T14:37:17;14.40;99.90
29731;DHT22;16639;51.488;0.152;2023-02-17T14:39:47;14.40;99.90
29731;DHT22;16639;51.488;0.152;2023-02-17T14:42:15;14.40;99.90
29731;DHT22;16639;51.488;0.152;2023-02-17T14:44:43;14.40;99.90
29731;DHT22;16639;51.488;0.152;2023-02-17T14:47:10;14.40;99.90
29731;DHT22;16639;51.488;0.152;2023-02-17T14:49:38;14.40;99.90
29731;DHT22;16639;51.488;0.152;2023-02-17T14:52:18;14.30;99.90
29731;DHT22;16639;51.488;0.152;2023-02-17T14:54:46;14.30;99.90
29731;DHT22;16639;51.488;0.152;2023-02-17T14:57:14;14.30;99.90
29731;DHT22;16639;51.488;0.152;2023-02-17T14:59:42;14.30;99.90
29731;DHT22;16639;51.488;0.152;2023-02-17T15:02:14;14.30;99.90
29731;DHT22;16639;51.488;0.152;2023-02-17T15:04:41;14.30;99.90
29731;DHT22;16639;51.488;0.152;2023-02-17T15:07:14;14.30;99.90
29731;DHT22;16639;51.488;0.152;2023-02-17T15:09:43;14.30;99.90
29731;DHT22;16639;51.488;0.152;2023-02-17T15:12:18;14.30;99.90
29731;DHT22;16639;51.488;0.152;2023-02-17T15:14:47;14.20;99.90
29731;DHT22;16639;51.488;0.152;2023-02-17T15:17:16;14.20;99.90
29731;DHT22;16639;51.488;0.152;2023-02-17T15:19:44;14.20;99.90
29731;DHT22;16639;51.488;0.152;2023-02-17T15:22:12;14.20;99.90
29731;DHT22;16639;51.488;0.152;2023-02-17T15:24:41;14.30;99.90
29731;DHT22;16639;51.488;0.152;2023-02-17T15:27:13;14.30;99.90
29731;DHT22;16639;51.488;0.152;2023-02-17T15:29:41;14.20;99.90
29731;DHT22;16639;51.488;0.152;2023-02-17T15:32:15;14.20;99.90
29731;DHT22;16639;51.488;0.152;2023-02-17T15:34:45;14.20;99.90
29731;DHT22;16639;51.488;0.152;2023-02-17T15:37:13;14.20;99.90
29731;DHT22;16639;51.488;0.152;2023-02-17T15:39:40;14.20;99.90
29731;DHT22;16639;51.488;0.152;2023-02-17T15:42:12;14.20;99.90
29731;DHT22;16639;51.488;0.152;2023-02-17T15:44:47;14.20;99.90
29731;DHT22;16639;51.488;0.152;2023-02-17T15:47:19;14.20;99.90
29731;DHT22;16639;51.488;0.152;2023-02-17T15:49:46;14.20;99.90
29731;DHT22;16639;51.488;0.152;2023-02-17T15:52:14;14.20;99.90
29731;DHT22;16639;51.488;0.152;2023-02-17T15:54:42;14.20;99.90
29731;DHT22;16639;51.488;0.152;2023-02-17T15:57:28;14.10;99.90
29731;DHT22;16639;51.488;0.152;2023-02-17T15:59:56;14.10;99.90
29731;DHT22;16639;51.488;0.152;2023-02-17T16:02:24;14.10;99.90
29731;DHT22;16639;51.488;0.152;2023-02-17T16:04:52;14.10;99.90
29731;DHT22;16639;51.488;0.152;2023-02-17T16:07:19;14.10;99.90
29731;DHT22;16639;51.488;0.152;2023-02-17T16:09:46;14.10;99.90
29731;DHT22;16639;51.488;0.152;2023-02-17T16:12:17;14.10;99.90
29731;DHT22;16639;51.488;0.152;2023-02-17T16:14:52;14.10;99.90
29731;DHT22;16639;51.488;0.152;2023-02-17T16:17:20;14.00;99.90
29731;DHT22;16639;51.488;0.152;2023-02-17T16:19:48;14.00;99.90
29731;DHT22;16639;51.488;0.152;2023-02-17T16:22:15;14.00;99.90
29731;DHT22;16639;51.488;0.152;2023-02-17T16:24:42;14.00;99.90
29731;DHT22;16639;51.488;0.152;2023-02-17T16:27:13;14.00;99.90
29731;DHT22;16639;51.488;0.152;2023-02-17T16:29:41;13.90;99.90
29731;DHT22;16639;51.488;0.152;2023-02-17T16:32:11;14.00;99.90
29731;DHT22;16639;51.488;0.152;2023-02-17T16:34:39;14.00;99.90
29731;DHT22;16639;51.488;0.152;2023-02-17T16:37:14;13.90;99.90
29731;DHT22;16639;51.488;0.152;2023-02-17T16:39:43;14.00;99.90
29731;DHT22;16639;51.488;0.152;2023-02-17T16:42:12;13.90;99.90
29731;DHT22;16639;51.488;0.152;2023-02-17T16:44:41;13.90;99.90
29731;DHT22;16639;51.488;0.152;2023-02-17T16:47:18;13.80;99.90
29731;DHT22;16639;51.488;0.152;2023-02-17T16:49:47;13.80;99.90
29731;DHT22;16639;51.488;0.152;2023-02-17T16:52:25;13.80;99.90
29731;DHT22;16639;51.488;0.152;2023-02-17T16:54:53;13.70;99.90
29731;DHT22;16639;51.488;0.152;2023-02-17T16:57:21;13.90;99.90
29731;DHT22;16639;51.488;0.152;2023-02-17T16:59:48;13.70;99.90
29731;DHT22;16639;51.488;0.152;2023-02-17T17:02:16;13.70;99.90
29731;DHT22;16639;51.488;0.152;2023-02-17T17:04:43;13.70;99.90
29731;DHT22;16639;51.488;0.152;2023-02-17T17:07:13;13.60;99.90
29731;DHT22;16639;51.488;0.152;2023-02-17T17:09:42;13.60;99.90
29731;DHT22;16639;51.488;0.152;2023-02-17T17:12:18;13.50;99.90
29731;DHT22;16639;51.488;0.152;2023-02-17T17:14:45;13.50;99.90
29731;DHT22;16639;51.488;0.152;2023-02-17T17:17:13;13.40;99.90
29731;DHT22;16639;51.488;0.152;2023-02-17T17:19:40;13.40;99.90
29731;DHT22;16639;51.488;0.152;2023-02-17T17:22:10;13.40;99.90
29731;DHT22;16639;51.488;0.152;2023-02-17T17:24:37;13.40;99.90
29731;DHT22;16639;51.488;0.152;2023-02-17T17:27:05;13.40;99.90
29731;DHT22;16639;51.488;0.152;2023-02-17T17:29:32;13.40;99.90
29731;DHT22;16639;51.488;0.152;2023-02-17T17:31:59;13.40;99.90
29731;DHT22;16639;51.488;0.152;2023-02-17T17:34:27;13.40;99.90
29731;DHT22;16639;51.488;0.152;2023-02-17T17:36:54;13.30;99.90
29731;DHT22;16639;51.488;0.152;2023-02-17T17:39:22;13.30;99.90
29731;DHT22;16639;51.488;0.152;2023-02-17T17:41:50;13.50;99.90
29731;DHT22;16639;51.488;0.152;2023-02-17T17:44:18;13.30;99.90
29731;DHT22;16639;51.488;0.152;2023-02-17T17:46:46;13.20;99.90
29731;DHT22;16639;51.488;0.152;2023-02-17T17:49:15;13.20;99.90
29731;DHT22;16639;51.488;0.152;2023-02-17T17:51:44;13.20;99.90